createdAt,value
2018-09-10T00:02:07.216Z,10.25
2018-09-10T00:04:36.333Z,12.00
2018-09-10T00:07:04.743Z,11.00
2018-09-10T00:09:33.213Z,10.00
2018-09-10T00:12:01.652Z,11.00
2018-09-10T00:14:30.493Z,11.00
2018-09-10T00:16:59.076Z,12.25
2018-09-10T00:19:27.513Z,12.75
2018-09-10T00:21:55.812Z,11.00
2018-09-10T00:24:24.271Z,10.75
2018-09-10T00:26:52.571Z,12.25
2018-09-10T00:29:20.976Z,10.25
2018-09-10T00:31:49.304Z,9.00
2018-09-10T00:34:17.650Z,8.00
2018-09-10T00:36:45.984Z,8.25
2018-09-10T00:39:15.127Z,8.00
2018-09-10T00:41:43.551Z,7.50
2018-09-10T00:44:11.924Z,7.00
2018-09-10T00:46:40.390Z,7.00
2018-09-10T00:49:10.279Z,8.50
2018-09-10T00:51:40.307Z,7.00
2018-09-10T00:54:10.762Z,8.00
2018-09-10T00:56:39.388Z,7.75
2018-09-10T00:59:07.748Z,8.00
2018-09-10T01:01:36.056Z,8.00
2018-09-10T01:04:04.383Z,7.00
2018-09-10T01:06:32.696Z,10.00
2018-09-10T01:09:01.027Z,9.00
2018-09-10T01:11:29.328Z,7.00
2018-09-10T01:14:01.151Z,9.00
2018-09-10T01:16:29.535Z,10.00
2018-09-10T01:18:57.858Z,7.75
2018-09-10T01:24:14.398Z,8.00
2018-09-10T01:26:42.748Z,7.75
2018-09-10T01:29:11.130Z,7.00
2018-09-10T01:31:39.459Z,8.00
2018-09-10T01:34:12.907Z,7.00
2018-09-10T01:36:41.265Z,7.00
2018-09-10T01:39:11.232Z,9.50
2018-09-10T01:41:39.540Z,8.00
2018-09-10T01:44:08.188Z,6.50
2018-09-10T01:46:36.520Z,7.25
2018-09-10T01:49:04.846Z,4.25
2018-09-10T01:51:33.215Z,7.25
2018-09-10T01:54:01.504Z,7.00
2018-09-10T01:56:29.884Z,7.75
2018-09-10T01:58:58.225Z,6.50
2018-09-10T02:01:27.484Z,6.00
2018-09-10T02:03:57.075Z,7.00
2018-09-10T02:06:25.435Z,7.50
2018-09-10T02:08:53.791Z,7.00
2018-09-10T02:11:22.131Z,7.00
2018-09-10T02:13:50.483Z,5.50
2018-09-10T02:16:18.896Z,7.75
2018-09-10T02:18:47.804Z,5.50
2018-09-10T02:21:16.574Z,4.00
2018-09-10T02:23:45.018Z,5.00
2018-09-10T02:26:13.267Z,7.00
2018-09-10T02:28:41.683Z,6.00
2018-09-10T02:31:11.537Z,7.00
2018-09-10T02:33:39.867Z,7.25
2018-09-10T02:36:11.233Z,7.00
2018-09-10T02:38:39.701Z,5.00
2018-09-10T02:41:07.967Z,7.00
2018-09-10T02:43:36.736Z,7.00
2018-09-10T02:46:06.107Z,5.00
2018-09-10T02:48:35.377Z,6.00
2018-09-10T02:51:04.276Z,6.50
2018-09-10T02:53:32.659Z,6.00
2018-09-10T02:56:01.039Z,6.50
2018-09-10T02:58:29.372Z,6.50
2018-09-10T03:00:57.752Z,6.50
2018-09-10T03:03:26.352Z,7.00
2018-09-10T03:05:54.669Z,5.50
2018-09-10T03:08:23.048Z,5.50
2018-09-10T03:10:51.391Z,4.00
2018-09-10T03:13:19.791Z,7.75
2018-09-10T03:15:48.119Z,6.00
2018-09-10T03:18:16.436Z,5.00
2018-09-10T03:20:45.769Z,7.00
2018-09-10T03:23:14.140Z,7.25
2018-09-10T03:25:42.626Z,7.00
2018-09-10T03:28:11.014Z,6.00
2018-09-10T03:30:39.348Z,7.00
2018-09-10T03:33:13.631Z,6.50
2018-09-10T03:35:41.972Z,7.25
2018-09-10T03:38:10.304Z,7.00
2018-09-10T03:40:38.627Z,7.00
2018-09-10T03:43:06.900Z,4.75
2018-09-10T03:45:35.235Z,4.25
2018-09-10T03:48:03.544Z,8.00
2018-09-10T03:50:31.952Z,6.00
2018-09-10T03:53:00.274Z,6.50
2018-09-10T03:55:28.607Z,7.50
2018-09-10T03:57:56.931Z,5.00
2018-09-10T04:00:25.280Z,7.00
2018-09-10T04:02:53.626Z,6.75
2018-09-10T04:05:22.000Z,7.75
2018-09-10T04:07:50.340Z,8.00
2018-09-10T04:10:18.648Z,8.00
2018-09-10T04:12:47.020Z,7.00
2018-09-10T04:15:18.265Z,7.00
2018-09-10T04:17:46.668Z,8.00
2018-09-10T04:20:15.041Z,7.00
2018-09-10T04:22:43.524Z,7.50
2018-09-10T04:25:11.856Z,7.50
2018-09-10T04:27:40.182Z,7.00
2018-09-10T04:30:12.204Z,8.50
2018-09-10T04:32:40.548Z,7.50
2018-09-10T04:35:09.171Z,7.25
2018-09-10T04:37:38.058Z,7.00
2018-09-10T04:40:06.629Z,7.00
2018-09-10T04:42:36.195Z,8.00
2018-09-10T04:45:06.761Z,7.25
2018-09-10T04:47:35.615Z,7.00
2018-09-10T04:50:03.949Z,7.25
2018-09-10T04:52:32.252Z,9.00
2018-09-10T04:55:00.579Z,7.00
2018-09-10T04:57:29.680Z,7.00
2018-09-10T04:59:57.984Z,6.50
2018-09-10T05:02:26.276Z,5.00
2018-09-10T05:04:54.583Z,6.50
2018-09-10T05:07:22.895Z,8.50
2018-09-10T05:09:56.106Z,5.00
2018-09-10T05:12:24.390Z,7.00
2018-09-10T05:14:53.047Z,7.00
2018-09-10T05:17:21.354Z,8.00
2018-09-10T05:19:50.747Z,9.00
2018-09-10T05:22:19.075Z,7.75
2018-09-10T05:25:06.385Z,7.00
2018-09-10T05:27:34.836Z,7.00
2018-09-10T05:30:07.124Z,8.50
2018-09-10T05:32:35.440Z,6.50
2018-09-10T05:35:04.240Z,7.50
2018-09-10T05:37:32.955Z,7.00
2018-09-10T05:40:01.378Z,5.50
2018-09-10T05:42:29.747Z,10.25
2018-09-10T05:44:58.075Z,7.50
2018-09-10T05:47:26.477Z,7.00
2018-09-10T05:49:54.818Z,6.50
2018-09-10T05:52:23.191Z,7.00
2018-09-10T05:54:51.545Z,8.00
2018-09-10T05:57:19.939Z,7.00
2018-09-10T05:59:48.353Z,7.25
2018-09-10T06:02:22.271Z,8.00
2018-09-10T06:04:50.532Z,7.75
2018-09-10T06:07:18.796Z,7.00
2018-09-10T06:09:47.101Z,7.50
2018-09-10T06:12:15.421Z,5.00
2018-09-10T06:14:43.736Z,8.00
2018-09-10T06:17:12.050Z,8.00
2018-09-10T06:19:40.322Z,9.50
2018-09-10T06:22:09.205Z,8.50
2018-09-10T06:24:37.511Z,8.00
2018-09-10T06:27:05.800Z,8.00
2018-09-10T06:29:34.169Z,11.00
2018-09-10T06:32:02.465Z,8.00
2018-09-10T06:34:30.776Z,7.75
2018-09-10T06:36:59.060Z,6.50
2018-09-10T06:39:28.342Z,7.75
2018-09-10T06:41:56.670Z,9.00
2018-09-10T06:44:25.909Z,7.75
2018-09-10T06:46:54.216Z,7.25
2018-09-10T06:49:22.825Z,8.00
2018-09-10T06:51:51.157Z,8.00
2018-09-10T06:56:53.424Z,7.25
2018-09-10T06:59:21.754Z,10.00
2018-09-10T07:01:50.028Z,8.00
2018-09-10T07:04:18.330Z,10.25
2018-09-10T07:06:46.615Z,10.75
2018-09-10T07:09:14.897Z,9.25
2018-09-10T07:11:43.215Z,8.75
2018-09-10T07:14:11.558Z,9.25
2018-09-10T07:16:39.851Z,8.00
2018-09-10T07:19:08.326Z,9.00
2018-09-10T07:21:36.575Z,12.00
2018-09-10T07:24:04.874Z,10.25
2018-09-10T07:26:33.180Z,10.00
2018-09-10T07:29:01.460Z,10.00
2018-09-10T07:31:29.757Z,9.00
2018-09-10T07:33:58.043Z,11.25
2018-09-10T07:36:28.138Z,9.00
2018-09-10T07:38:56.448Z,11.25
2018-09-10T07:41:24.774Z,8.75
2018-09-10T07:43:53.156Z,10.00
2018-09-10T07:46:22.023Z,8.25
2018-09-10T07:48:54.443Z,8.75
2018-09-10T07:51:22.712Z,8.00
2018-09-10T07:53:51.029Z,7.00
2018-09-10T07:56:19.358Z,8.00
2018-09-10T07:58:47.701Z,8.00
2018-09-10T08:01:16.003Z,9.00
2018-09-10T08:03:44.330Z,7.00
2018-09-10T08:06:12.612Z,8.00
2018-09-10T08:08:40.890Z,8.00
2018-09-10T08:11:11.189Z,5.25
2018-09-10T08:13:39.496Z,6.00
2018-09-10T08:16:07.779Z,6.50
2018-09-10T08:18:36.120Z,5.25
2018-09-10T08:21:05.385Z,5.50
2018-09-10T08:23:34.860Z,4.75
2018-09-10T08:26:03.175Z,4.50
2018-09-10T08:28:31.443Z,5.25
2018-09-10T08:30:59.742Z,3.50
2018-09-10T08:33:28.026Z,4.00
2018-09-10T08:35:56.301Z,4.00
2018-09-10T08:38:24.611Z,2.00
2018-09-10T08:40:53.247Z,1.00
2018-09-10T08:43:21.521Z,2.00
2018-09-10T08:45:49.831Z,2.00
2018-09-10T08:48:18.176Z,2.00
2018-09-10T08:50:46.459Z,3.00
2018-09-10T08:53:14.762Z,2.00
2018-09-10T08:55:43.239Z,1.50
2018-09-10T08:58:11.397Z,3.50
2018-09-10T09:00:39.656Z,4.00
2018-09-10T09:03:07.964Z,2.00
2018-09-10T09:05:36.275Z,3.00
2018-09-10T09:08:05.467Z,2.00
2018-09-10T09:10:33.694Z,2.00
2018-09-10T09:13:01.984Z,2.00
2018-09-10T09:15:30.219Z,2.00
2018-09-10T09:17:59.055Z,2.00
2018-09-10T09:20:27.330Z,4.00
2018-09-10T09:22:55.622Z,2.00
2018-09-10T09:25:23.857Z,4.75
2018-09-10T09:27:52.179Z,1.25
2018-09-10T09:30:20.500Z,2.00
2018-09-10T09:32:48.766Z,1.25
2018-09-10T09:35:24.624Z,1.75
2018-09-10T09:37:58.186Z,1.50
2018-09-10T09:40:31.769Z,1.00
2018-09-10T09:43:05.198Z,1.00
2018-09-10T09:46:06.965Z,1.25
2018-09-10T09:48:35.610Z,1.00
2018-09-10T09:51:04.408Z,2.00
2018-09-10T09:53:32.698Z,3.75
2018-09-10T09:56:02.204Z,2.00
2018-09-10T09:58:30.514Z,1.75
2018-09-10T10:02:06.758Z,1.75
2018-09-10T10:04:36.049Z,1.00
2018-09-10T10:07:05.488Z,1.50
2018-09-10T10:09:33.838Z,1.00
2018-09-10T10:12:02.131Z,1.00
2018-09-10T10:14:30.411Z,1.50
2018-09-10T10:16:59.529Z,1.00
2018-09-10T10:19:27.821Z,2.00
2018-09-10T10:21:56.090Z,1.00
2018-09-10T10:24:24.378Z,1.75
2018-09-10T10:26:52.695Z,2.00
2018-09-10T10:29:20.983Z,1.00
2018-09-10T10:31:49.231Z,1.00
2018-09-10T10:34:17.514Z,2.75
2018-09-10T10:36:45.791Z,1.00
2018-09-10T10:39:15.523Z,1.25
2018-09-10T10:41:44.436Z,2.00
2018-09-10T10:44:12.738Z,1.75
2018-09-10T10:46:41.027Z,1.00
2018-09-10T10:49:09.317Z,1.00
2018-09-10T10:51:37.638Z,1.50
2018-09-10T10:54:05.931Z,2.00
2018-09-10T10:56:34.209Z,1.25
2018-09-10T10:59:02.515Z,1.75
2018-09-10T11:01:31.836Z,1.00
2018-09-10T11:04:00.126Z,1.50
2018-09-10T11:06:28.379Z,1.75
2018-09-10T11:08:56.669Z,2.00
2018-09-10T11:11:24.942Z,1.75
2018-09-10T11:13:53.225Z,2.00
2018-09-10T11:16:21.497Z,2.25
2018-09-10T11:18:49.789Z,1.00
2018-09-10T11:21:18.040Z,1.75
2018-09-10T11:23:46.304Z,1.25
2018-09-10T11:26:14.593Z,1.50
2018-09-10T11:28:42.881Z,2.00
2018-09-10T11:31:11.104Z,2.00
2018-09-10T11:33:39.379Z,2.00
2018-09-10T11:36:07.713Z,3.00
2018-09-10T11:38:35.987Z,3.25
2018-09-10T11:41:04.271Z,2.00
2018-09-10T11:43:32.551Z,3.00
2018-09-10T11:46:00.942Z,2.00
2018-09-10T11:48:29.181Z,3.75
2018-09-10T11:50:57.522Z,2.00
2018-09-10T11:53:25.804Z,2.00
2018-09-10T11:55:54.100Z,2.00
2018-09-10T11:58:22.414Z,1.00
2018-09-10T12:00:50.665Z,2.00
2018-09-10T12:03:18.985Z,1.00
2018-09-10T12:05:47.242Z,1.00
2018-09-10T12:08:15.528Z,2.00
2018-09-10T12:10:43.848Z,1.50
2018-09-10T12:13:12.411Z,1.25
2018-09-10T12:15:40.832Z,1.00
2018-09-10T12:18:09.142Z,1.00
2018-09-10T12:20:37.428Z,1.00
2018-09-10T12:23:06.774Z,1.00
2018-09-10T12:25:35.068Z,1.75
2018-09-10T12:28:03.374Z,1.00
2018-09-10T12:30:31.667Z,2.00
2018-09-10T12:32:59.986Z,1.00
2018-09-10T12:35:29.183Z,1.25
2018-09-10T12:37:57.480Z,1.25
2018-09-10T12:40:25.766Z,2.00
2018-09-10T12:42:54.935Z,1.00
2018-09-10T12:45:23.195Z,1.00
2018-09-10T12:47:51.485Z,1.00
2018-09-10T12:50:19.775Z,1.75
2018-09-10T12:52:48.071Z,1.50
2018-09-10T12:55:16.357Z,1.25
2018-09-10T12:57:47.522Z,1.75
2018-09-10T13:00:15.824Z,2.00
2018-09-10T13:02:44.109Z,2.00
2018-09-10T13:05:13.355Z,2.00
2018-09-10T13:07:41.656Z,2.00
2018-09-10T13:10:10.843Z,2.00
2018-09-10T13:12:39.136Z,3.00
2018-09-10T13:15:07.419Z,2.00
2018-09-10T13:17:35.683Z,1.00
2018-09-10T13:20:03.980Z,1.25
2018-09-10T13:22:32.289Z,2.00
2018-09-10T13:25:00.588Z,2.25
2018-09-10T13:27:28.877Z,1.50
2018-09-10T13:29:57.122Z,1.75
2018-09-10T13:32:25.467Z,1.00
2018-09-10T13:34:53.770Z,1.50
2018-09-10T13:37:22.040Z,2.00
2018-09-10T13:39:50.336Z,2.00
2018-09-10T13:42:18.596Z,2.00
2018-09-10T13:44:46.834Z,3.00
2018-09-10T13:47:15.104Z,2.00
2018-09-10T13:49:43.463Z,1.50
2018-09-10T13:52:11.740Z,1.25
2018-09-10T13:54:40.032Z,1.50
2018-09-10T13:57:08.322Z,1.50
2018-09-10T13:59:36.612Z,1.00
2018-09-10T14:02:04.898Z,1.75
2018-09-10T14:04:34.422Z,2.00
2018-09-10T14:07:02.701Z,2.00
2018-09-10T14:09:31.210Z,1.50
2018-09-10T14:11:59.492Z,2.00
2018-09-10T14:14:27.790Z,2.00
2018-09-10T14:16:56.055Z,1.75
2018-09-10T14:19:24.336Z,2.00
2018-09-10T14:21:52.597Z,2.00
2018-09-10T14:24:20.873Z,1.00
2018-09-10T14:26:49.148Z,2.00
2018-09-10T14:29:17.447Z,4.00
2018-09-10T14:31:45.752Z,2.25
2018-09-10T14:34:13.975Z,2.00
2018-09-10T14:36:42.304Z,3.00
2018-09-10T14:39:10.704Z,2.00
2018-09-10T14:41:39.000Z,3.25
2018-09-10T14:44:07.408Z,3.75
2018-09-10T14:46:36.693Z,2.25
2018-09-10T14:49:05.075Z,2.00
2018-09-10T14:51:33.391Z,3.50
2018-09-10T14:54:01.687Z,1.75
2018-09-10T14:56:29.965Z,2.00
2018-09-10T14:58:58.318Z,3.75
2018-09-10T15:01:26.643Z,2.00
2018-09-10T15:03:54.923Z,3.75
2018-09-10T15:06:23.258Z,2.50
2018-09-10T15:08:52.492Z,2.00
2018-09-10T15:11:20.816Z,3.00
2018-09-10T15:13:49.540Z,2.75
2018-09-10T15:16:17.936Z,2.50
2018-09-10T15:18:47.336Z,3.50
2018-09-10T15:21:15.702Z,3.75
2018-09-10T15:23:52.541Z,3.75
2018-09-10T15:26:32.230Z,3.75
2018-09-10T15:29:08.805Z,3.75
2018-09-10T15:31:47.523Z,3.75
2018-09-10T15:34:16.503Z,3.75
2018-09-10T15:39:35.709Z,2.00
2018-09-10T15:47:36.335Z,3.00
2018-09-10T15:50:15.997Z,3.00
2018-09-10T15:52:50.793Z,2.00
2018-09-10T15:55:23.550Z,2.75
2018-09-10T15:57:52.771Z,2.50
2018-09-10T16:00:21.119Z,2.00
2018-09-10T16:02:49.418Z,2.50
2018-09-10T16:05:17.745Z,2.00
2018-09-10T16:07:46.559Z,2.50
2018-09-10T16:10:14.900Z,2.50
2018-09-10T16:12:43.199Z,2.25
2018-09-10T16:15:11.530Z,3.75
2018-09-10T16:17:41.196Z,3.75
2018-09-10T16:20:09.516Z,2.75
2018-09-10T16:22:37.810Z,2.00
2018-09-10T16:25:06.139Z,2.00
2018-09-10T16:27:34.614Z,2.00
2018-09-10T16:30:02.839Z,2.00
2018-09-10T16:32:31.112Z,2.00
2018-09-10T16:34:59.419Z,2.50
2018-09-10T16:37:27.896Z,3.75
2018-09-10T16:39:56.207Z,2.00
2018-09-10T16:42:24.475Z,3.25
2018-09-10T16:44:52.764Z,3.75
2018-09-10T16:47:21.073Z,4.50
2018-09-10T16:49:51.159Z,4.50
2018-09-10T16:52:19.487Z,4.00
2018-09-10T16:54:47.900Z,4.00
2018-09-10T16:57:16.125Z,3.00
2018-09-10T16:59:44.479Z,2.00
2018-09-10T17:02:12.813Z,2.00
2018-09-10T17:04:41.124Z,2.00
2018-09-10T17:07:09.481Z,2.50
2018-09-10T17:09:38.064Z,2.00
2018-09-10T17:12:06.466Z,1.50
2018-09-10T17:14:36.572Z,2.00
2018-09-10T17:17:05.286Z,2.00
2018-09-10T17:19:33.901Z,4.00
2018-09-10T17:22:04.875Z,4.00
2018-09-10T17:24:40.098Z,4.00
2018-09-10T17:30:02.463Z,3.50
2018-09-10T17:32:30.820Z,4.25
2018-09-10T17:35:01.531Z,4.75
2018-09-10T17:37:29.871Z,4.00
2018-09-10T17:39:58.160Z,4.75
2018-09-10T17:42:36.218Z,5.00
2018-09-10T17:45:05.136Z,5.00
2018-09-10T17:47:33.438Z,5.00
2018-09-10T17:50:01.741Z,2.50
2018-09-10T17:52:30.008Z,2.50
2018-09-10T17:54:58.287Z,4.50
2018-09-10T17:57:26.599Z,4.00
2018-09-10T17:59:55.044Z,4.25
2018-09-10T18:02:23.309Z,5.00
2018-09-10T18:04:51.759Z,5.25
2018-09-10T18:07:25.042Z,3.50
2018-09-10T18:09:53.452Z,4.50
2018-09-10T18:12:21.737Z,4.50
2018-09-10T18:14:50.099Z,4.25
2018-09-10T18:17:18.402Z,4.25
2018-09-10T18:19:47.062Z,4.00
2018-09-10T18:22:15.804Z,4.25
2018-09-10T18:24:44.233Z,2.50
2018-09-10T18:27:12.648Z,2.00
2018-09-10T18:29:40.937Z,3.00
2018-09-10T18:32:09.242Z,3.50
2018-09-10T18:34:44.149Z,4.00
2018-09-10T18:37:12.476Z,2.00
2018-09-10T18:39:40.957Z,2.00
2018-09-10T18:42:09.287Z,2.50
2018-09-10T18:44:37.629Z,2.00
2018-09-10T18:47:08.283Z,1.75
2018-09-10T18:49:36.635Z,1.25
2018-09-10T18:52:04.952Z,2.00
2018-09-10T18:54:33.339Z,2.00
2018-09-10T18:57:01.721Z,1.75
2018-09-10T18:59:31.608Z,2.00
2018-09-10T19:02:00.292Z,2.00
2018-09-10T19:04:29.275Z,2.00
2018-09-10T19:06:58.094Z,2.00
2018-09-10T19:09:26.416Z,2.00
2018-09-10T19:11:56.127Z,2.00
2018-09-10T19:14:25.436Z,4.00
2018-09-10T19:16:53.799Z,1.75
2018-09-10T19:19:22.171Z,1.25
2018-09-10T19:21:50.462Z,1.50
2018-09-10T19:24:20.908Z,1.25
2018-09-10T19:26:50.442Z,2.00
2018-09-10T19:29:18.871Z,1.00
2018-09-10T19:31:47.253Z,2.00
2018-09-10T19:34:15.682Z,1.75
2018-09-10T19:36:44.125Z,2.00
2018-09-10T19:39:13.031Z,2.00
2018-09-10T19:41:41.367Z,1.75
2018-09-10T19:44:09.773Z,2.00
2018-09-10T19:46:38.093Z,4.00
2018-09-10T19:49:06.481Z,1.25
2018-09-10T19:51:34.803Z,2.00
2018-09-10T19:54:03.920Z,1.75
2018-09-10T19:56:32.416Z,4.00
2018-09-10T19:59:00.704Z,1.00
2018-09-10T20:01:29.053Z,1.00
2018-09-10T20:03:57.402Z,3.50
2018-09-10T20:06:25.749Z,1.25
2018-09-10T20:08:54.089Z,2.00
2018-09-10T20:11:22.420Z,2.00
2018-09-10T20:13:50.761Z,2.00
2018-09-10T20:16:20.041Z,1.75
2018-09-10T20:18:49.386Z,2.00
2018-09-10T20:21:19.111Z,2.00
2018-09-10T20:23:47.642Z,1.50
2018-09-10T20:26:16.002Z,2.00
2018-09-10T20:29:17.921Z,4.00
2018-09-10T20:31:46.832Z,2.50
2018-09-10T20:34:15.145Z,4.00
2018-09-10T20:36:44.639Z,1.75
2018-09-10T20:39:14.328Z,3.00
2018-09-10T20:41:42.893Z,2.00
2018-09-10T20:44:11.524Z,2.00
2018-09-10T20:46:40.006Z,2.00
2018-09-10T20:49:08.680Z,2.00
2018-09-10T20:51:37.015Z,3.00
2018-09-10T20:54:05.298Z,3.50
2018-09-10T20:56:33.598Z,4.00
2018-09-10T20:59:01.926Z,4.00
2018-09-10T21:01:30.344Z,2.00
2018-09-10T21:03:58.651Z,2.00
2018-09-10T21:06:27.011Z,3.50
2018-09-10T21:08:59.166Z,2.00
2018-09-10T21:11:27.459Z,2.00
2018-09-10T21:13:55.752Z,4.00
2018-09-10T21:16:24.079Z,2.00
2018-09-10T21:18:52.404Z,2.50
2018-09-10T21:21:20.724Z,2.00
2018-09-10T21:23:49.133Z,2.50
2018-09-10T21:26:17.421Z,2.00
2018-09-10T21:28:45.758Z,3.00
2018-09-10T21:31:20.961Z,3.25
2018-09-10T21:33:49.345Z,1.50
2018-09-10T21:36:17.607Z,4.00
2018-09-10T21:38:45.924Z,3.25
2018-09-10T21:41:14.255Z,4.00
2018-09-10T21:43:43.233Z,3.50
2018-09-10T21:46:11.644Z,2.75
2018-09-10T21:48:39.948Z,1.50
2018-09-10T21:51:08.310Z,4.00
2018-09-10T21:53:37.757Z,4.00
2018-09-10T21:56:06.016Z,4.00
2018-09-10T21:58:34.311Z,4.00
2018-09-10T22:01:02.635Z,3.00
2018-09-10T22:03:30.925Z,4.00
2018-09-10T22:05:59.222Z,4.00
2018-09-10T22:08:27.514Z,3.75
2018-09-10T22:10:55.758Z,4.00
2018-09-10T22:13:24.060Z,3.50
2018-09-10T22:15:55.309Z,3.25
2018-09-10T22:18:23.588Z,4.00
2018-09-10T22:20:51.883Z,4.00
2018-09-10T22:23:20.172Z,4.00
2018-09-10T22:25:48.455Z,4.00
2018-09-10T22:28:17.803Z,2.75
2018-09-10T22:30:46.138Z,2.75
2018-09-10T22:33:14.418Z,4.00
2018-09-10T22:35:42.692Z,5.25
2018-09-10T22:38:10.990Z,2.75
2018-09-10T22:40:40.030Z,4.00
2018-09-10T22:43:08.304Z,3.75
2018-09-10T22:45:36.578Z,3.75
2018-09-10T22:48:04.886Z,3.25
2018-09-10T22:50:33.195Z,4.75
2018-09-10T22:53:01.484Z,4.00
2018-09-10T22:55:29.794Z,4.00
2018-09-10T22:57:58.074Z,4.50
2018-09-10T23:00:26.394Z,5.00
2018-09-10T23:02:54.663Z,4.00
2018-09-10T23:05:22.938Z,4.00
2018-09-10T23:07:51.208Z,5.00
2018-09-10T23:10:19.490Z,5.00
2018-09-10T23:12:47.772Z,4.00
2018-09-10T23:15:16.084Z,4.00
2018-09-10T23:17:44.408Z,4.00
2018-09-10T23:20:12.687Z,4.00
2018-09-10T23:22:40.977Z,6.00
2018-09-10T23:25:09.252Z,5.50
2018-09-10T23:27:37.549Z,3.75
2018-09-10T23:30:05.824Z,4.00
2018-09-10T23:32:34.112Z,6.00
2018-09-10T23:35:02.398Z,5.00
2018-09-10T23:37:30.684Z,4.00
2018-09-10T23:39:58.973Z,5.50
2018-09-10T23:42:27.237Z,4.00
2018-09-10T23:44:55.534Z,5.00
2018-09-10T23:47:23.855Z,5.00
2018-09-10T23:49:52.233Z,4.00
2018-09-10T23:52:20.514Z,6.00
2018-09-10T23:54:48.824Z,6.00
2018-09-10T23:57:17.093Z,6.00
2018-09-10T23:59:45.412Z,6.50
